sensor_id;sensor_type;location;lat;lon;timestamp;P1;durP1;ratioP1;P2;durP2;ratioP2
7116;SDS011;3600;48.568;7.870;2023-05-07T00:01:48;5.90;;;5.32;;
7116;SDS011;3600;48.568;7.870;2023-05-07T00:04:15;6.68;;;5.25;;
7116;SDS011;3600;48.568;7.870;2023-05-07T00:06:42;5.85;;;5.38;;
7116;SDS011;3600;48.568;7.870;2023-05-07T00:09:08;5.97;;;5.43;;
7116;SDS011;3600;48.568;7.870;2023-05-07T00:11:35;6.50;;;5.88;;
7116;SDS011;3600;48.568;7.870;2023-05-07T00:14:02;5.72;;;5.20;;
7116;SDS011;3600;48.568;7.870;2023-05-07T00:16:30;5.35;;;4.85;;
7116;SDS011;3600;48.568;7.870;2023-05-07T00:18:57;5.32;;;4.85;;
7116;SDS011;3600;48.568;7.870;2023-05-07T00:21:24;5.22;;;4.72;;
7116;SDS011;3600;48.568;7.870;2023-05-07T00:23:53;4.85;;;4.45;;
7116;SDS011;3600;48.568;7.870;2023-05-07T00:26:20;5.47;;;4.93;;
7116;SDS011;3600;48.568;7.870;2023-05-07T00:28:47;8.15;;;5.22;;
7116;SDS011;3600;48.568;7.870;2023-05-07T00:31:13;5.63;;;5.13;;
7116;SDS011;3600;48.568;7.870;2023-05-07T00:33:40;5.85;;;5.35;;
7116;SDS011;3600;48.568;7.870;2023-05-07T00:36:07;6.53;;;5.03;;
7116;SDS011;3600;48.568;7.870;2023-05-07T00:38:33;6.10;;;5.38;;
7116;SDS011;3600;48.568;7.870;2023-05-07T00:41:00;6.10;;;5.50;;
7116;SDS011;3600;48.568;7.870;2023-05-07T00:43:28;6.55;;;5.85;;
7116;SDS011;3600;48.568;7.870;2023-05-07T00:45:55;6.20;;;5.63;;
7116;SDS011;3600;48.568;7.870;2023-05-07T00:48:22;6.95;;;6.35;;
7116;SDS011;3600;48.568;7.870;2023-05-07T00:50:50;6.80;;;6.07;;
7116;SDS011;3600;48.568;7.870;2023-05-07T00:53:17;7.60;;;6.93;;
7116;SDS011;3600;48.568;7.870;2023-05-07T00:55:44;7.65;;;6.95;;
7116;SDS011;3600;48.568;7.870;2023-05-07T00:58:11;7.72;;;6.85;;
7116;SDS011;3600;48.568;7.870;2023-05-07T01:00:38;8.10;;;7.20;;
7116;SDS011;3600;48.568;7.870;2023-05-07T01:03:04;8.70;;;7.18;;
7116;SDS011;3600;48.568;7.870;2023-05-07T01:05:32;7.90;;;7.18;;
7116;SDS011;3600;48.568;7.870;2023-05-07T01:08:00;7.43;;;6.82;;
7116;SDS011;3600;48.568;7.870;2023-05-07T01:10:28;7.72;;;6.88;;
7116;SDS011;3600;48.568;7.870;2023-05-07T01:12:57;7.97;;;7.15;;
7116;SDS011;3600;48.568;7.870;2023-05-07T01:15:25;7.95;;;7.20;;
7116;SDS011;3600;48.568;7.870;2023-05-07T01:17:52;7.28;;;6.57;;
7116;SDS011;3600;48.568;7.870;2023-05-07T01:20:19;7.35;;;6.65;;
7116;SDS011;3600;48.568;7.870;2023-05-07T01:22:46;8.57;;;6.85;;
7116;SDS011;3600;48.568;7.870;2023-05-07T01:25:13;7.45;;;6.78;;
7116;SDS011;3600;48.568;7.870;2023-05-07T01:27:42;8.27;;;7.00;;
7116;SDS011;3600;48.568;7.870;2023-05-07T01:30:09;7.78;;;7.07;;
7116;SDS011;3600;48.568;7.870;2023-05-07T01:32:48;7.72;;;6.93;;
7116;SDS011;3600;48.568;7.870;2023-05-07T01:35:16;7.28;;;6.57;;
7116;SDS011;3600;48.568;7.870;2023-05-07T01:37:46;7.18;;;6.57;;
7116;SDS011;3600;48.568;7.870;2023-05-07T01:40:14;7.40;;;6.80;;
7116;SDS011;3600;48.568;7.870;2023-05-07T01:42:41;6.78;;;5.80;;
7116;SDS011;3600;48.568;7.870;2023-05-07T01:45:10;6.68;;;6.15;;
7116;SDS011;3600;48.568;7.870;2023-05-07T01:47:37;6.15;;;5.65;;
7116;SDS011;3600;48.568;7.870;2023-05-07T01:50:05;7.15;;;6.55;;
7116;SDS011;3600;48.568;7.870;2023-05-07T01:52:36;6.80;;;6.20;;
7116;SDS011;3600;48.568;7.870;2023-05-07T01:55:05;7.53;;;6.85;;
7116;SDS011;3600;48.568;7.870;2023-05-07T01:57:32;6.50;;;6.00;;
7116;SDS011;3600;48.568;7.870;2023-05-07T01:59:59;7.18;;;6.18;;
7116;SDS011;3600;48.568;7.870;2023-05-07T02:02:25;7.05;;;6.38;;
7116;SDS011;3600;48.568;7.870;2023-05-07T02:04:52;6.90;;;6.22;;
7116;SDS011;3600;48.568;7.870;2023-05-07T02:07:19;7.00;;;6.30;;
7116;SDS011;3600;48.568;7.870;2023-05-07T02:09:46;7.07;;;6.15;;
7116;SDS011;3600;48.568;7.870;2023-05-07T02:12:13;5.80;;;5.30;;
7116;SDS011;3600;48.568;7.870;2023-05-07T02:14:39;5.72;;;5.22;;
7116;SDS011;3600;48.568;7.870;2023-05-07T02:17:06;6.25;;;5.75;;
7116;SDS011;3600;48.568;7.870;2023-05-07T02:19:33;6.93;;;6.22;;
7116;SDS011;3600;48.568;7.870;2023-05-07T02:22:00;7.30;;;6.70;;
7116;SDS011;3600;48.568;7.870;2023-05-07T02:24:27;7.15;;;6.45;;
7116;SDS011;3600;48.568;7.870;2023-05-07T02:26:53;6.63;;;6.10;;
7116;SDS011;3600;48.568;7.870;2023-05-07T02:29:20;6.10;;;5.50;;
7116;SDS011;3600;48.568;7.870;2023-05-07T02:31:47;5.90;;;5.32;;
7116;SDS011;3600;48.568;7.870;2023-05-07T02:34:19;5.95;;;5.45;;
7116;SDS011;3600;48.568;7.870;2023-05-07T02:36:45;6.22;;;5.63;;
7116;SDS011;3600;48.568;7.870;2023-05-07T02:39:13;5.88;;;5.38;;
7116;SDS011;3600;48.568;7.870;2023-05-07T02:41:39;6.55;;;5.95;;
7116;SDS011;3600;48.568;7.870;2023-05-07T02:44:06;6.50;;;5.70;;
7116;SDS011;3600;48.568;7.870;2023-05-07T02:46:33;6.20;;;5.60;;
7116;SDS011;3600;48.568;7.870;2023-05-07T02:48:59;8.52;;;6.03;;
7116;SDS011;3600;48.568;7.870;2023-05-07T02:51:27;6.72;;;6.13;;
7116;SDS011;3600;48.568;7.870;2023-05-07T02:53:53;6.20;;;5.70;;
7116;SDS011;3600;48.568;7.870;2023-05-07T02:56:21;6.93;;;6.30;;
7116;SDS011;3600;48.568;7.870;2023-05-07T02:58:48;5.88;;;5.32;;
7116;SDS011;3600;48.568;7.870;2023-05-07T03:01:14;6.40;;;5.80;;
7116;SDS011;3600;48.568;7.870;2023-05-07T03:03:41;6.28;;;5.78;;
7116;SDS011;3600;48.568;7.870;2023-05-07T03:06:08;6.75;;;5.85;;
7116;SDS011;3600;48.568;7.870;2023-05-07T03:08:35;6.53;;;5.53;;
7116;SDS011;3600;48.568;7.870;2023-05-07T03:11:02;5.78;;;5.38;;
7116;SDS011;3600;48.568;7.870;2023-05-07T03:13:29;5.90;;;5.35;;
7116;SDS011;3600;48.568;7.870;2023-05-07T03:15:56;5.88;;;5.30;;
7116;SDS011;3600;48.568;7.870;2023-05-07T03:18:23;5.03;;;4.72;;
7116;SDS011;3600;48.568;7.870;2023-05-07T03:20:51;5.93;;;5.30;;
7116;SDS011;3600;48.568;7.870;2023-05-07T03:23:18;5.88;;;5.38;;
7116;SDS011;3600;48.568;7.870;2023-05-07T03:25:45;6.10;;;5.47;;
7116;SDS011;3600;48.568;7.870;2023-05-07T03:28:11;6.30;;;5.18;;
7116;SDS011;3600;48.568;7.870;2023-05-07T03:30:38;6.65;;;4.82;;
7116;SDS011;3600;48.568;7.870;2023-05-07T03:33:05;5.35;;;4.88;;
7116;SDS011;3600;48.568;7.870;2023-05-07T03:35:32;5.15;;;4.75;;
7116;SDS011;3600;48.568;7.870;2023-05-07T03:37:58;5.70;;;5.10;;
7116;SDS011;3600;48.568;7.870;2023-05-07T03:40:25;4.78;;;4.38;;
7116;SDS011;3600;48.568;7.870;2023-05-07T03:42:52;5.50;;;5.00;;
7116;SDS011;3600;48.568;7.870;2023-05-07T03:45:19;5.10;;;4.70;;
7116;SDS011;3600;48.568;7.870;2023-05-07T03:47:45;5.25;;;4.80;;
7116;SDS011;3600;48.568;7.870;2023-05-07T03:50:12;4.88;;;4.47;;
7116;SDS011;3600;48.568;7.870;2023-05-07T03:52:39;5.18;;;4.70;;
7116;SDS011;3600;48.568;7.870;2023-05-07T03:55:06;5.38;;;4.97;;
7116;SDS011;3600;48.568;7.870;2023-05-07T03:57:33;6.38;;;5.70;;
7116;SDS011;3600;48.568;7.870;2023-05-07T04:00:00;4.82;;;4.53;;
7116;SDS011;3600;48.568;7.870;2023-05-07T04:02:27;5.47;;;4.80;;
7116;SDS011;3600;48.568;7.870;2023-05-07T04:04:54;6.20;;;5.60;;
7116;SDS011;3600;48.568;7.870;2023-05-07T04:07:22;5.90;;;5.40;;
7116;SDS011;3600;48.568;7.870;2023-05-07T04:09:48;6.20;;;5.60;;
7116;SDS011;3600;48.568;7.870;2023-05-07T04:12:15;8.32;;;5.85;;
7116;SDS011;3600;48.568;7.870;2023-05-07T04:14:42;7.07;;;6.40;;
7116;SDS011;3600;48.568;7.870;2023-05-07T04:17:09;8.18;;;6.28;;
7116;SDS011;3600;48.568;7.870;2023-05-07T04:19:36;6.65;;;6.13;;
7116;SDS011;3600;48.568;7.870;2023-05-07T04:22:03;6.55;;;6.05;;
7116;SDS011;3600;48.568;7.870;2023-05-07T04:24:33;6.57;;;5.90;;
7116;SDS011;3600;48.568;7.870;2023-05-07T04:27:00;5.85;;;5.45;;
7116;SDS011;3600;48.568;7.870;2023-05-07T04:29:27;6.20;;;5.57;;
7116;SDS011;3600;48.568;7.870;2023-05-07T04:31:54;6.50;;;5.47;;
7116;SDS011;3600;48.568;7.870;2023-05-07T04:34:22;6.47;;;5.93;;
7116;SDS011;3600;48.568;7.870;2023-05-07T04:36:49;6.38;;;5.88;;
7116;SDS011;3600;48.568;7.870;2023-05-07T04:39:16;6.50;;;5.60;;
7116;SDS011;3600;48.568;7.870;2023-05-07T04:41:43;6.85;;;6.35;;
7116;SDS011;3600;48.568;7.870;2023-05-07T04:44:09;6.05;;;5.55;;
7116;SDS011;3600;48.568;7.870;2023-05-07T04:46:36;7.20;;;6.50;;
7116;SDS011;3600;48.568;7.870;2023-05-07T04:49:03;7.35;;;6.80;;
7116;SDS011;3600;48.568;7.870;2023-05-07T04:51:30;7.40;;;6.78;;
7116;SDS011;3600;48.568;7.870;2023-05-07T04:53:58;7.25;;;6.65;;
7116;SDS011;3600;48.568;7.870;2023-05-07T04:56:27;7.60;;;6.90;;
7116;SDS011;3600;48.568;7.870;2023-05-07T04:58:55;7.50;;;6.60;;
7116;SDS011;3600;48.568;7.870;2023-05-07T05:01:22;7.75;;;6.93;;
7116;SDS011;3600;48.568;7.870;2023-05-07T05:03:49;7.78;;;6.88;;
7116;SDS011;3600;48.568;7.870;2023-05-07T05:06:16;7.43;;;6.53;;
7116;SDS011;3600;48.568;7.870;2023-05-07T05:08:43;7.35;;;6.65;;
7116;SDS011;3600;48.568;7.870;2023-05-07T05:11:10;6.63;;;6.13;;
7116;SDS011;3600;48.568;7.870;2023-05-07T05:13:36;5.80;;;5.32;;
7116;SDS011;3600;48.568;7.870;2023-05-07T05:16:03;5.75;;;5.25;;
7116;SDS011;3600;48.568;7.870;2023-05-07T05:18:30;5.70;;;5.18;;
7116;SDS011;3600;48.568;7.870;2023-05-07T05:20:57;5.00;;;4.60;;
7116;SDS011;3600;48.568;7.870;2023-05-07T05:23:24;4.95;;;4.45;;
7116;SDS011;3600;48.568;7.870;2023-05-07T05:25:54;5.20;;;4.22;;
7116;SDS011;3600;48.568;7.870;2023-05-07T05:28:23;3.78;;;3.55;;
7116;SDS011;3600;48.568;7.870;2023-05-07T05:30:49;4.18;;;3.75;;
7116;SDS011;3600;48.568;7.870;2023-05-07T05:33:16;4.32;;;4.00;;
7116;SDS011;3600;48.568;7.870;2023-05-07T05:35:43;4.82;;;4.43;;
7116;SDS011;3600;48.568;7.870;2023-05-07T05:38:10;5.72;;;5.32;;
7116;SDS011;3600;48.568;7.870;2023-05-07T05:40:37;5.10;;;4.53;;
7116;SDS011;3600;48.568;7.870;2023-05-07T05:43:04;5.55;;;4.65;;
7116;SDS011;3600;48.568;7.870;2023-05-07T05:45:31;4.85;;;4.45;;
7116;SDS011;3600;48.568;7.870;2023-05-07T05:47:58;5.40;;;4.45;;
7116;SDS011;3600;48.568;7.870;2023-05-07T05:50:25;5.45;;;4.60;;
7116;SDS011;3600;48.568;7.870;2023-05-07T05:52:52;5.28;;;4.78;;
7116;SDS011;3600;48.568;7.870;2023-05-07T05:55:19;5.00;;;4.50;;
7116;SDS011;3600;48.568;7.870;2023-05-07T05:57:46;5.43;;;4.85;;
7116;SDS011;3600;48.568;7.870;2023-05-07T06:00:13;5.25;;;4.85;;
7116;SDS011;3600;48.568;7.870;2023-05-07T06:02:40;6.03;;;5.43;;
7116;SDS011;3600;48.568;7.870;2023-05-07T06:05:07;6.70;;;5.63;;
7116;SDS011;3600;48.568;7.870;2023-05-07T06:07:34;6.20;;;5.40;;
7116;SDS011;3600;48.568;7.870;2023-05-07T06:10:01;6.30;;;5.70;;
7116;SDS011;3600;48.568;7.870;2023-05-07T06:12:27;6.53;;;5.93;;
7116;SDS011;3600;48.568;7.870;2023-05-07T06:14:54;6.03;;;5.53;;
7116;SDS011;3600;48.568;7.870;2023-05-07T06:17:21;6.40;;;5.85;;
7116;SDS011;3600;48.568;7.870;2023-05-07T06:19:47;6.63;;;5.82;;
7116;SDS011;3600;48.568;7.870;2023-05-07T06:22:14;6.78;;;6.28;;
7116;SDS011;3600;48.568;7.870;2023-05-07T06:24:41;6.88;;;6.28;;
7116;SDS011;3600;48.568;7.870;2023-05-07T06:27:08;7.60;;;6.20;;
7116;SDS011;3600;48.568;7.870;2023-05-07T06:29:35;6.80;;;6.20;;
7116;SDS011;3600;48.568;7.870;2023-05-07T06:32:11;6.53;;;6.00;;
7116;SDS011;3600;48.568;7.870;2023-05-07T06:34:39;6.65;;;6.10;;
7116;SDS011;3600;48.568;7.870;2023-05-07T06:37:07;6.93;;;5.90;;
7116;SDS011;3600;48.568;7.870;2023-05-07T06:39:33;6.07;;;5.57;;
7116;SDS011;3600;48.568;7.870;2023-05-07T06:42:01;7.07;;;6.38;;
7116;SDS011;3600;48.568;7.870;2023-05-07T06:44:28;6.55;;;5.95;;
7116;SDS011;3600;48.568;7.870;2023-05-07T06:46:55;6.55;;;6.05;;
7116;SDS011;3600;48.568;7.870;2023-05-07T06:49:21;7.18;;;5.43;;
7116;SDS011;3600;48.568;7.870;2023-05-07T06:51:48;6.97;;;6.32;;
7116;SDS011;3600;48.568;7.870;2023-05-07T06:54:15;6.50;;;6.00;;
7116;SDS011;3600;48.568;7.870;2023-05-07T06:56:42;6.50;;;5.90;;
7116;SDS011;3600;48.568;7.870;2023-05-07T06:59:09;5.97;;;5.30;;
7116;SDS011;3600;48.568;7.870;2023-05-07T07:01:36;7.45;;;6.50;;
7116;SDS011;3600;48.568;7.870;2023-05-07T07:04:03;6.47;;;5.97;;
7116;SDS011;3600;48.568;7.870;2023-05-07T07:06:29;6.03;;;5.53;;
7116;SDS011;3600;48.568;7.870;2023-05-07T07:08:58;6.72;;;6.18;;
7116;SDS011;3600;48.568;7.870;2023-05-07T07:11:25;6.60;;;6.10;;
7116;SDS011;3600;48.568;7.870;2023-05-07T07:13:52;6.57;;;6.07;;
7116;SDS011;3600;48.568;7.870;2023-05-07T07:16:21;7.93;;;6.10;;
7116;SDS011;3600;48.568;7.870;2023-05-07T07:18:48;6.85;;;6.13;;
7116;SDS011;3600;48.568;7.870;2023-05-07T07:21:15;7.32;;;6.15;;
7116;SDS011;3600;48.568;7.870;2023-05-07T07:23:41;7.38;;;6.18;;
7116;SDS011;3600;48.568;7.870;2023-05-07T07:26:08;7.00;;;6.40;;
7116;SDS011;3600;48.568;7.870;2023-05-07T07:28:41;7.43;;;6.72;;
7116;SDS011;3600;48.568;7.870;2023-05-07T07:31:10;6.90;;;6.30;;
7116;SDS011;3600;48.568;7.870;2023-05-07T07:33:37;7.18;;;6.50;;
7116;SDS011;3600;48.568;7.870;2023-05-07T07:36:05;7.28;;;6.05;;
7116;SDS011;3600;48.568;7.870;2023-05-07T07:38:32;8.05;;;7.25;;
7116;SDS011;3600;48.568;7.870;2023-05-07T07:41:00;9.23;;;6.53;;
7116;SDS011;3600;48.568;7.870;2023-05-07T07:43:27;7.45;;;6.85;;
7116;SDS011;3600;48.568;7.870;2023-05-07T07:45:54;6.88;;;5.93;;
7116;SDS011;3600;48.568;7.870;2023-05-07T07:48:21;7.20;;;6.50;;
7116;SDS011;3600;48.568;7.870;2023-05-07T07:50:48;7.53;;;6.38;;
7116;SDS011;3600;48.568;7.870;2023-05-07T07:53:17;7.28;;;6.18;;
7116;SDS011;3600;48.568;7.870;2023-05-07T07:55:44;8.00;;;7.30;;
7116;SDS011;3600;48.568;7.870;2023-05-07T07:58:11;9.65;;;7.95;;
7116;SDS011;3600;48.568;7.870;2023-05-07T08:00:38;10.10;;;6.95;;
7116;SDS011;3600;48.568;7.870;2023-05-07T08:03:05;8.73;;;7.72;;
7116;SDS011;3600;48.568;7.870;2023-05-07T08:05:33;7.68;;;6.80;;
7116;SDS011;3600;48.568;7.870;2023-05-07T08:08:00;7.10;;;6.50;;
7116;SDS011;3600;48.568;7.870;2023-05-07T08:10:27;7.82;;;7.22;;
7116;SDS011;3600;48.568;7.870;2023-05-07T08:12:54;7.97;;;7.18;;
7116;SDS011;3600;48.568;7.870;2023-05-07T08:15:21;8.65;;;7.78;;
7116;SDS011;3600;48.568;7.870;2023-05-07T08:17:47;7.82;;;7.03;;
7116;SDS011;3600;48.568;7.870;2023-05-07T08:20:14;6.32;;;5.80;;
7116;SDS011;3600;48.568;7.870;2023-05-07T08:22:41;7.93;;;7.22;;
7116;SDS011;3600;48.568;7.870;2023-05-07T08:25:08;10.20;;;7.50;;
7116;SDS011;3600;48.568;7.870;2023-05-07T08:27:35;6.97;;;6.45;;
7116;SDS011;3600;48.568;7.870;2023-05-07T08:30:02;7.70;;;6.90;;
7116;SDS011;3600;48.568;7.870;2023-05-07T08:32:29;8.45;;;7.43;;
7116;SDS011;3600;48.568;7.870;2023-05-07T08:34:56;7.45;;;6.50;;
7116;SDS011;3600;48.568;7.870;2023-05-07T08:37:23;7.80;;;7.13;;
7116;SDS011;3600;48.568;7.870;2023-05-07T08:39:49;8.35;;;7.20;;
7116;SDS011;3600;48.568;7.870;2023-05-07T08:42:16;9.48;;;7.90;;
7116;SDS011;3600;48.568;7.870;2023-05-07T08:44:45;7.47;;;6.88;;
7116;SDS011;3600;48.568;7.870;2023-05-07T08:47:14;7.40;;;6.70;;
7116;SDS011;3600;48.568;7.870;2023-05-07T08:49:42;7.22;;;6.68;;
7116;SDS011;3600;48.568;7.870;2023-05-07T08:52:09;7.00;;;6.43;;
7116;SDS011;3600;48.568;7.870;2023-05-07T08:54:38;8.52;;;7.45;;
7116;SDS011;3600;48.568;7.870;2023-05-07T08:57:06;6.18;;;5.68;;
7116;SDS011;3600;48.568;7.870;2023-05-07T08:59:33;6.50;;;5.90;;
7116;SDS011;3600;48.568;7.870;2023-05-07T09:01:59;7.43;;;6.72;;
7116;SDS011;3600;48.568;7.870;2023-05-07T09:04:27;6.80;;;5.45;;
7116;SDS011;3600;48.568;7.870;2023-05-07T09:06:53;6.75;;;5.25;;
7116;SDS011;3600;48.568;7.870;2023-05-07T09:09:22;7.93;;;7.22;;
7116;SDS011;3600;48.568;7.870;2023-05-07T09:11:48;9.10;;;6.00;;
7116;SDS011;3600;48.568;7.870;2023-05-07T09:14:23;6.53;;;5.30;;
7116;SDS011;3600;48.568;7.870;2023-05-07T09:16:51;5.70;;;4.57;;
7116;SDS011;3600;48.568;7.870;2023-05-07T09:19:23;6.65;;;5.40;;
7116;SDS011;3600;48.568;7.870;2023-05-07T09:21:57;6.38;;;5.60;;
7116;SDS011;3600;48.568;7.870;2023-05-07T09:24:25;7.13;;;5.55;;
7116;SDS011;3600;48.568;7.870;2023-05-07T09:26:54;6.05;;;5.50;;
7116;SDS011;3600;48.568;7.870;2023-05-07T09:29:23;6.25;;;5.28;;
7116;SDS011;3600;48.568;7.870;2023-05-07T09:31:51;5.68;;;5.18;;
7116;SDS011;3600;48.568;7.870;2023-05-07T09:34:17;6.15;;;5.65;;
7116;SDS011;3600;48.568;7.870;2023-05-07T09:36:44;5.90;;;5.40;;
7116;SDS011;3600;48.568;7.870;2023-05-07T09:39:11;6.05;;;5.50;;
7116;SDS011;3600;48.568;7.870;2023-05-07T09:41:48;6.47;;;5.85;;
7116;SDS011;3600;48.568;7.870;2023-05-07T09:44:20;5.90;;;5.40;;
7116;SDS011;3600;48.568;7.870;2023-05-07T09:46:52;6.28;;;5.78;;
7116;SDS011;3600;48.568;7.870;2023-05-07T09:49:22;6.45;;;5.85;;
7116;SDS011;3600;48.568;7.870;2023-05-07T09:51:50;6.07;;;5.47;;
7116;SDS011;3600;48.568;7.870;2023-05-07T09:54:18;5.78;;;5.22;;
7116;SDS011;3600;48.568;7.870;2023-05-07T09:56:45;7.15;;;5.25;;
7116;SDS011;3600;48.568;7.870;2023-05-07T09:59:15;6.88;;;6.28;;
7116;SDS011;3600;48.568;7.870;2023-05-07T10:01:43;6.70;;;4.72;;
7116;SDS011;3600;48.568;7.870;2023-05-07T10:04:11;5.30;;;4.80;;
7116;SDS011;3600;48.568;7.870;2023-05-07T10:06:38;6.00;;;5.00;;
7116;SDS011;3600;48.568;7.870;2023-05-07T10:09:06;5.20;;;4.80;;
7116;SDS011;3600;48.568;7.870;2023-05-07T10:11:33;6.90;;;5.95;;
7116;SDS011;3600;48.568;7.870;2023-05-07T10:14:02;6.65;;;5.80;;
7116;SDS011;3600;48.568;7.870;2023-05-07T10:16:32;5.30;;;4.78;;
7116;SDS011;3600;48.568;7.870;2023-05-07T10:19:05;4.90;;;4.50;;
7116;SDS011;3600;48.568;7.870;2023-05-07T10:21:35;5.68;;;5.13;;
7116;SDS011;3600;48.568;7.870;2023-05-07T10:24:04;6.30;;;5.07;;
7116;SDS011;3600;48.568;7.870;2023-05-07T10:26:42;5.47;;;4.90;;
7116;SDS011;3600;48.568;7.870;2023-05-07T10:29:15;5.57;;;5.07;;
7116;SDS011;3600;48.568;7.870;2023-05-07T10:31:49;6.00;;;5.40;;
7116;SDS011;3600;48.568;7.870;2023-05-07T10:34:28;5.07;;;4.57;;
7116;SDS011;3600;48.568;7.870;2023-05-07T10:37:01;5.20;;;4.55;;
7116;SDS011;3600;48.568;7.870;2023-05-07T10:39:30;5.10;;;4.60;;
7116;SDS011;3600;48.568;7.870;2023-05-07T10:42:03;4.65;;;4.25;;
7116;SDS011;3600;48.568;7.870;2023-05-07T10:44:34;5.13;;;4.50;;
7116;SDS011;3600;48.568;7.870;2023-05-07T10:47:08;5.80;;;5.10;;
7116;SDS011;3600;48.568;7.870;2023-05-07T10:49:36;5.82;;;5.22;;
7116;SDS011;3600;48.568;7.870;2023-05-07T10:52:23;5.80;;;5.30;;
7116;SDS011;3600;48.568;7.870;2023-05-07T10:55:35;6.50;;;5.90;;
7116;SDS011;3600;48.568;7.870;2023-05-07T10:57:46;6.57;;;6.05;;
7116;SDS011;3600;48.568;7.870;2023-05-07T11:03:04;6.82;;;6.20;;
7116;SDS011;3600;48.568;7.870;2023-05-07T11:05:33;6.60;;;6.00;;
7116;SDS011;3600;48.568;7.870;2023-05-07T11:08:04;5.57;;;5.07;;
7116;SDS011;3600;48.568;7.870;2023-05-07T11:13:18;6.43;;;5.82;;
7116;SDS011;3600;48.568;7.870;2023-05-07T11:16:04;4.22;;;3.83;;
7116;SDS011;3600;48.568;7.870;2023-05-07T11:18:46;5.65;;;5.00;;
7116;SDS011;3600;48.568;7.870;2023-05-07T11:24:05;5.15;;;4.22;;
7116;SDS011;3600;48.568;7.870;2023-05-07T11:26:48;4.50;;;4.10;;
7116;SDS011;3600;48.568;7.870;2023-05-07T11:29:19;6.53;;;4.00;;
7116;SDS011;3600;48.568;7.870;2023-05-07T11:31:52;5.18;;;4.32;;
7116;SDS011;3600;48.568;7.870;2023-05-07T11:34:21;4.75;;;4.10;;
7116;SDS011;3600;48.568;7.870;2023-05-07T11:36:51;4.35;;;3.95;;
7116;SDS011;3600;48.568;7.870;2023-05-07T11:39:25;4.63;;;3.92;;
7116;SDS011;3600;48.568;7.870;2023-05-07T11:42:02;5.38;;;4.88;;
7116;SDS011;3600;48.568;7.870;2023-05-07T11:44:42;8.00;;;5.63;;
7116;SDS011;3600;48.568;7.870;2023-05-07T11:47:10;7.90;;;6.18;;
7116;SDS011;3600;48.568;7.870;2023-05-07T11:49:37;6.45;;;5.28;;
7116;SDS011;3600;48.568;7.870;2023-05-07T11:52:04;5.90;;;5.03;;
7116;SDS011;3600;48.568;7.870;2023-05-07T11:54:35;5.38;;;4.90;;
7116;SDS011;3600;48.568;7.870;2023-05-07T11:57:03;4.95;;;4.50;;
7116;SDS011;3600;48.568;7.870;2023-05-07T11:59:30;4.50;;;4.10;;
7116;SDS011;3600;48.568;7.870;2023-05-07T12:02:03;4.70;;;4.20;;
7116;SDS011;3600;48.568;7.870;2023-05-07T12:04:30;4.80;;;3.72;;
7116;SDS011;3600;48.568;7.870;2023-05-07T12:06:57;5.18;;;4.32;;
7116;SDS011;3600;48.568;7.870;2023-05-07T12:09:24;5.15;;;4.18;;
7116;SDS011;3600;48.568;7.870;2023-05-07T12:11:51;4.30;;;3.90;;
7116;SDS011;3600;48.568;7.870;2023-05-07T12:14:19;6.47;;;5.05;;
7116;SDS011;3600;48.568;7.870;2023-05-07T12:16:46;4.63;;;3.97;;
7116;SDS011;3600;48.568;7.870;2023-05-07T12:19:12;4.50;;;4.20;;
7116;SDS011;3600;48.568;7.870;2023-05-07T12:21:41;4.50;;;4.10;;
7116;SDS011;3600;48.568;7.870;2023-05-07T12:24:10;5.63;;;5.10;;
7116;SDS011;3600;48.568;7.870;2023-05-07T12:26:37;4.72;;;4.20;;
7116;SDS011;3600;48.568;7.870;2023-05-07T12:29:05;4.72;;;4.07;;
7116;SDS011;3600;48.568;7.870;2023-05-07T12:31:32;5.63;;;4.93;;
7116;SDS011;3600;48.568;7.870;2023-05-07T12:33:59;5.65;;;5.15;;
7116;SDS011;3600;48.568;7.870;2023-05-07T12:36:26;4.70;;;4.13;;
7116;SDS011;3600;48.568;7.870;2023-05-07T12:39:04;5.13;;;4.63;;
7116;SDS011;3600;48.568;7.870;2023-05-07T12:41:53;5.35;;;4.63;;
7116;SDS011;3600;48.568;7.870;2023-05-07T12:44:33;4.70;;;4.30;;
7116;SDS011;3600;48.568;7.870;2023-05-07T12:47:01;5.63;;;4.75;;
7116;SDS011;3600;48.568;7.870;2023-05-07T12:49:28;3.95;;;3.58;;
7116;SDS011;3600;48.568;7.870;2023-05-07T12:51:55;5.28;;;4.80;;
7116;SDS011;3600;48.568;7.870;2023-05-07T12:54:32;5.32;;;4.20;;
7116;SDS011;3600;48.568;7.870;2023-05-07T12:57:03;5.93;;;3.92;;
7116;SDS011;3600;48.568;7.870;2023-05-07T12:59:40;5.55;;;4.25;;
7116;SDS011;3600;48.568;7.870;2023-05-07T13:02:08;4.97;;;3.75;;
7116;SDS011;3600;48.568;7.870;2023-05-07T13:04:35;3.60;;;3.30;;
7116;SDS011;3600;48.568;7.870;2023-05-07T13:07:02;3.50;;;3.20;;
7116;SDS011;3600;48.568;7.870;2023-05-07T13:09:30;3.13;;;2.83;;
7116;SDS011;3600;48.568;7.870;2023-05-07T13:11:57;3.67;;;3.38;;
7116;SDS011;3600;48.568;7.870;2023-05-07T13:14:27;4.57;;;2.95;;
7116;SDS011;3600;48.568;7.870;2023-05-07T13:16:54;3.40;;;3.10;;
7116;SDS011;3600;48.568;7.870;2023-05-07T13:19:21;5.45;;;3.45;;
7116;SDS011;3600;48.568;7.870;2023-05-07T13:21:47;5.63;;;3.17;;
7116;SDS011;3600;48.568;7.870;2023-05-07T13:24:15;3.13;;;2.92;;
7116;SDS011;3600;48.568;7.870;2023-05-07T13:26:42;10.18;;;3.20;;
7116;SDS011;3600;48.568;7.870;2023-05-07T13:29:11;6.35;;;3.13;;
7116;SDS011;3600;48.568;7.870;2023-05-07T13:31:38;3.70;;;2.80;;
7116;SDS011;3600;48.568;7.870;2023-05-07T13:34:08;3.28;;;2.97;;
7116;SDS011;3600;48.568;7.870;2023-05-07T13:36:36;6.47;;;3.45;;
7116;SDS011;3600;48.568;7.870;2023-05-07T13:39:05;3.30;;;3.10;;
7116;SDS011;3600;48.568;7.870;2023-05-07T13:41:32;4.15;;;2.95;;
7116;SDS011;3600;48.568;7.870;2023-05-07T13:43:59;3.08;;;2.80;;
7116;SDS011;3600;48.568;7.870;2023-05-07T13:46:26;3.45;;;2.90;;
7116;SDS011;3600;48.568;7.870;2023-05-07T13:48:53;5.20;;;3.25;;
7116;SDS011;3600;48.568;7.870;2023-05-07T13:51:20;3.67;;;3.28;;
7116;SDS011;3600;48.568;7.870;2023-05-07T13:53:47;3.67;;;3.38;;
7116;SDS011;3600;48.568;7.870;2023-05-07T13:56:14;3.65;;;3.35;;
7116;SDS011;3600;48.568;7.870;2023-05-07T13:58:41;3.42;;;3.10;;
7116;SDS011;3600;48.568;7.870;2023-05-07T14:01:21;3.22;;;3.03;;
7116;SDS011;3600;48.568;7.870;2023-05-07T14:03:48;3.95;;;2.88;;
7116;SDS011;3600;48.568;7.870;2023-05-07T14:06:15;3.80;;;2.75;;
7116;SDS011;3600;48.568;7.870;2023-05-07T14:08:42;3.10;;;2.90;;
7116;SDS011;3600;48.568;7.870;2023-05-07T14:11:08;3.38;;;3.08;;
7116;SDS011;3600;48.568;7.870;2023-05-07T14:13:35;3.25;;;2.95;;
7116;SDS011;3600;48.568;7.870;2023-05-07T14:16:03;3.05;;;2.72;;
7116;SDS011;3600;48.568;7.870;2023-05-07T14:18:30;4.80;;;2.90;;
7116;SDS011;3600;48.568;7.870;2023-05-07T14:20:57;3.05;;;2.80;;
7116;SDS011;3600;48.568;7.870;2023-05-07T14:23:23;3.20;;;2.90;;
7116;SDS011;3600;48.568;7.870;2023-05-07T14:25:52;3.60;;;2.90;;
7116;SDS011;3600;48.568;7.870;2023-05-07T14:28:19;3.03;;;2.70;;
7116;SDS011;3600;48.568;7.870;2023-05-07T14:30:46;3.00;;;2.80;;
7116;SDS011;3600;48.568;7.870;2023-05-07T14:33:13;3.63;;;3.08;;
7116;SDS011;3600;48.568;7.870;2023-05-07T14:35:40;3.20;;;2.70;;
7116;SDS011;3600;48.568;7.870;2023-05-07T14:38:07;3.83;;;3.15;;
7116;SDS011;3600;48.568;7.870;2023-05-07T14:40:33;3.28;;;2.75;;
7116;SDS011;3600;48.568;7.870;2023-05-07T14:43:00;3.63;;;2.88;;
7116;SDS011;3600;48.568;7.870;2023-05-07T14:45:27;3.47;;;3.17;;
7116;SDS011;3600;48.568;7.870;2023-05-07T14:47:53;3.95;;;3.03;;
7116;SDS011;3600;48.568;7.870;2023-05-07T14:50:21;3.42;;;3.10;;
7116;SDS011;3600;48.568;7.870;2023-05-07T14:52:47;3.38;;;2.88;;
7116;SDS011;3600;48.568;7.870;2023-05-07T14:55:14;3.72;;;3.42;;
7116;SDS011;3600;48.568;7.870;2023-05-07T14:57:41;3.40;;;3.10;;
7116;SDS011;3600;48.568;7.870;2023-05-07T15:00:08;3.30;;;2.97;;
7116;SDS011;3600;48.568;7.870;2023-05-07T15:02:35;3.20;;;3.00;;
7116;SDS011;3600;48.568;7.870;2023-05-07T15:05:02;3.50;;;3.20;;
7116;SDS011;3600;48.568;7.870;2023-05-07T15:07:29;4.88;;;3.00;;
7116;SDS011;3600;48.568;7.870;2023-05-07T15:09:58;2.75;;;2.50;;
7116;SDS011;3600;48.568;7.870;2023-05-07T15:12:25;2.80;;;2.60;;
7116;SDS011;3600;48.568;7.870;2023-05-07T15:14:52;2.80;;;2.60;;
7116;SDS011;3600;48.568;7.870;2023-05-07T15:17:19;3.50;;;2.38;;
7116;SDS011;3600;48.568;7.870;2023-05-07T15:19:45;2.10;;;1.90;;
7116;SDS011;3600;48.568;7.870;2023-05-07T15:22:12;2.53;;;2.30;;
7116;SDS011;3600;48.568;7.870;2023-05-07T15:24:39;3.10;;;2.33;;
7116;SDS011;3600;48.568;7.870;2023-05-07T15:27:07;2.22;;;2.00;;
7116;SDS011;3600;48.568;7.870;2023-05-07T15:29:33;1.80;;;1.70;;